This is the latest recevied weather packets stored in our database for station/object WB4E-13. If no packets are shown the sender has not sent any weather packets the latest 10 day(s).
| Time | Temp. | Humidity | Pressure | Rain* | Wind** | Luminosity | Snow |
|---|---|---|---|---|---|---|---|
| 1777652847 | 18.89° C | 45% | 1011.9 hPa | 0 mm | - | - | - |
| 1777652247 | 18.89° C | 46% | 1011.9 hPa | 0 mm | - | - | - |
| 1777645047 | 15° C | 63% | 1012.1 hPa | 0 mm | - | - | - |
| 1777637842 | 11.11° C | 77% | 1011.9 hPa | 0 mm | - | - | - |
| 1777636031 | 10.56° C | 78% | 1011.7 hPa | 0 mm | - | - | - |
| 1777597604 | 15.56° C | 49% | 1010.8 hPa | 0 mm | - | - | - |
| 1777595694 | 16.67° C | 48% | 1010.4 hPa | 0 mm | - | - | - |
| 1777593466 | 17.78° C | 45% | 1010 hPa | 0 mm | - | - | - |
| 1777592865 | 17.78° C | 47% | 1010.1 hPa | 0 mm | - | - | - |
| 1777592264 | 18.33° C | 46% | 1010.1 hPa | 0 mm | - | - | - |
| 1777591664 | 18.33° C | 44% | 1010.1 hPa | 0 mm | - | - | - |
| 1777591063 | 18.33° C | 45% | 1010.1 hPa | 0 mm | - | - | - |
| 1777590463 | 18.33° C | 44% | 1010.1 hPa | 0 mm | - | - | - |
| 1777589868 | 18.33° C | 43% | 1010.1 hPa | 0 mm | - | - | - |
| 1777589306 | 18.33° C | 43% | 1010.1 hPa | 0 mm | - | - | - |
| 1777589268 | 18.33° C | 43% | 1010.1 hPa | 0 mm | - | - | - |
| 1777588668 | 18.33° C | 47% | 1010.1 hPa | 0 mm | - | - | - |
| 1777588067 | 18.89° C | 43% | 1010.1 hPa | 0 mm | - | - | - |
| 1777587466 | 18.89° C | 47% | 1010 hPa | 0 mm | - | - | - |
| 1777586866 | 18.89° C | 41% | 1009.9 hPa | 0 mm | - | - | - |
| 1777586265 | 18.89° C | 46% | 1009.9 hPa | 0 mm | - | - | - |
| 1777585665 | 18.89° C | 42% | 1009.8 hPa | 0 mm | - | - | - |
| 1777585065 | 19.44° C | 40% | 1009.7 hPa | 0 mm | - | - | - |
| 1777584464 | 19.44° C | 41% | 1009.8 hPa | 0 mm | - | - | - |
| 1777583864 | 19.44° C | 41% | 1009.8 hPa | 0 mm | - | - | - |
* Rain latest hour (hover to see other rain measurements)
** Current wind speed in m/s (hover to see current wind gust speed)